Time;durP1;ratioP1;P1;durP2;ratioP2;P2;SDS_P1;SDS_P2;PMS_P1;PMS_P2;Temp;Humidity;BMP_temperature;BMP_pressure;BME280_temperature;BME280_humidity;BME280_pressure;Samples;Min_cycle;Max_cycle;Signal;HPM_P1;HPM_P2
2024/01/02 00:00:07;;;;;;;4.37;1.60;;;;;;;6.08;86.15;99636.09;5011772;28;20207;-79
2024/01/02 00:02:33;;;;;;;5.83;2.10;;;;;;;6.06;86.72;99624.91;5006009;28;20244;-79
2024/01/02 00:04:59;;;;;;;4.47;2.07;;;;;;;6.11;85.67;99612.75;5009960;28;20308;-79
2024/01/02 00:07:26;;;;;;;6.77;2.70;;;;;;;6.14;86.12;99607.50;5010252;28;20211;-79
2024/01/02 00:09:52;;;;;;;8.13;2.13;;;;;;;6.15;85.29;99609.25;5008984;28;20276;-79
2024/01/02 00:12:18;;;;;;;4.67;2.37;;;;;;;6.11;85.14;99611.00;5009176;28;20200;-80
2024/01/02 00:14:45;;;;;;;5.60;2.27;;;;;;;6.12;85.88;99611.84;5009995;28;20207;-79
2024/01/02 00:17:12;;;;;;;5.53;2.07;;;;;;;5.85;85.89;99600.13;5009417;28;20212;-78
2024/01/02 00:19:39;;;;;;;10.77;2.73;;;;;;;5.96;86.65;99580.13;5009041;28;20262;-79
2024/01/02 00:22:05;;;;;;;11.47;2.40;;;;;;;5.95;86.12;99566.31;5010141;28;20298;-79
2024/01/02 00:24:32;;;;;;;11.23;2.30;;;;;;;5.98;86.48;99562.81;5008338;28;20292;-79
2024/01/02 00:26:58;;;;;;;9.60;2.07;;;;;;;5.99;86.11;99563.72;5008622;28;20250;-79
2024/01/02 00:29:25;;;;;;;5.60;2.00;;;;;;;5.92;85.67;99562.88;5009579;28;20217;-79
2024/01/02 00:31:51;;;;;;;7.67;2.17;;;;;;;5.91;86.16;99558.59;5008322;28;20677;-79
2024/01/02 00:34:19;;;;;;;7.07;2.10;;;;;;;5.98;85.43;99557.66;5007731;28;20302;-79
2024/01/02 00:36:45;;;;;;;5.13;2.00;;;;;;;5.99;86.05;99561.13;5007803;28;20233;-79
2024/01/02 00:39:11;;;;;;;8.10;3.27;;;;;;;6.01;86.15;99559.38;5007666;28;20641;-80
2024/01/02 00:41:38;;;;;;;8.20;2.10;;;;;;;6.04;86.26;99554.13;5009478;28;20233;-79
2024/01/02 00:44:04;;;;;;;3.97;1.70;;;;;;;6.08;85.33;99545.41;5009066;28;20228;-79
2024/01/02 00:46:31;;;;;;;5.17;2.13;;;;;;;6.15;86.22;99539.28;5007412;28;20230;-79
2024/01/02 00:48:58;;;;;;;10.87;2.47;;;;;;;6.11;86.02;99542.78;5009040;28;20204;-79
2024/01/02 00:51:26;;;;;;;4.30;2.00;;;;;;;6.10;86.68;99531.56;5008747;28;20214;-79
2024/01/02 00:53:52;;;;;;;5.63;2.20;;;;;;;6.16;86.53;99528.91;5008677;28;20266;-79
2024/01/02 00:56:19;;;;;;;9.27;2.87;;;;;;;6.15;86.79;99510.78;5013709;28;20232;-79
2024/01/02 00:58:45;;;;;;;4.17;2.23;;;;;;;6.21;86.26;99510.69;5012302;28;20218;-79
2024/01/02 01:01:12;;;;;;;6.33;2.10;;;;;;;6.25;86.21;99514.94;5009052;28;20199;-78
2024/01/02 01:03:38;;;;;;;4.93;1.93;;;;;;;6.27;85.69;99515.75;5006000;28;20292;-81
2024/01/02 01:06:05;;;;;;;5.27;1.97;;;;;;;6.35;85.10;99523.41;5008283;28;20809;-79
2024/01/02 01:08:32;;;;;;;6.60;1.87;;;;;;;6.33;85.36;99520.84;5008206;28;20254;-81
2024/01/02 01:10:59;;;;;;;5.77;2.23;;;;;;;6.38;86.09;99514.72;5009870;28;20241;-79
2024/01/02 01:13:25;;;;;;;2.80;1.63;;;;;;;6.24;86.08;99510.59;5010475;28;20205;-79
2024/01/02 01:15:52;;;;;;;6.10;1.80;;;;;;;6.23;85.71;99515.84;5018630;28;20229;-78
2024/01/02 01:18:18;;;;;;;4.70;1.70;;;;;;;6.22;86.32;99493.38;5017691;28;20275;-79
2024/01/02 01:20:44;;;;;;;6.67;2.13;;;;;;;6.25;86.60;99496.78;5018037;28;20245;-79
2024/01/02 01:23:11;;;;;;;7.70;2.30;;;;;;;6.30;86.55;99474.25;5014655;28;20707;-80
2024/01/02 01:25:38;;;;;;;9.00;1.90;;;;;;;6.35;86.44;99487.97;5014188;28;20237;-79
2024/01/02 01:28:05;;;;;;;4.03;1.87;;;;;;;6.29;86.64;99477.72;5015133;28;20214;-79
2024/01/02 01:30:32;;;;;;;3.10;2.03;;;;;;;6.28;86.89;99475.13;5015187;28;20209;-79
2024/01/02 01:32:58;;;;;;;4.20;1.70;;;;;;;6.31;86.80;99459.53;5014363;28;20569;-79
2024/01/02 01:35:24;;;;;;;4.67;1.60;;;;;;;6.29;86.72;99456.97;5014353;28;20771;-80
2024/01/02 01:37:50;;;;;;;8.43;1.67;;;;;;;6.32;86.25;99458.66;5014659;28;20214;-79
2024/01/02 01:40:17;;;;;;;3.93;1.73;;;;;;;6.29;87.03;99458.72;5014631;28;20265;-79
2024/01/02 01:42:45;;;;;;;3.10;1.57;;;;;;;6.34;85.76;99454.28;5014509;28;20257;-79
2024/01/02 01:45:11;;;;;;;5.07;1.80;;;;;;;6.34;86.37;99457.75;5014935;28;20218;-79
2024/01/02 01:47:38;;;;;;;3.97;1.90;;;;;;;6.36;85.83;99453.41;5015049;28;20264;-80
2024/01/02 01:50:05;;;;;;;3.37;1.30;;;;;;;6.23;86.25;99443.28;5016324;28;20591;-79
2024/01/02 01:52:32;;;;;;;6.77;2.43;;;;;;;6.15;87.20;99428.72;5016213;28;20202;-79
2024/01/02 01:54:59;;;;;;;11.87;2.73;;;;;;;6.12;87.71;99402.84;5016147;28;20205;-79
2024/01/02 01:57:25;;;;;;;8.07;2.53;;;;;;;6.21;88.33;99385.44;5015448;28;20225;-79
2024/01/02 01:59:53;;;;;;;8.30;2.37;;;;;;;6.27;87.88;99374.97;5016175;28;20206;-79
2024/01/02 02:02:20;;;;;;;6.53;2.07;;;;;;;6.31;88.02;99359.31;5015383;28;20205;-79
2024/01/02 02:04:50;;;;;;;5.57;1.93;;;;;;;6.31;87.39;99363.66;5016059;28;20214;-79
2024/01/02 02:07:17;;;;;;;8.10;2.77;;;;;;;6.29;87.76;99352.47;5007500;28;20264;-79
2024/01/02 02:09:43;;;;;;;7.77;2.50;;;;;;;6.38;89.08;99323.75;5014742;28;20704;-79
2024/01/02 02:12:10;;;;;;;9.93;2.67;;;;;;;6.41;89.04;99322.88;5015070;28;20210;-79
2024/01/02 02:14:37;;;;;;;6.30;2.30;;;;;;;6.46;89.22;99302.88;5014662;28;20673;-80
2024/01/02 02:17:05;;;;;;;9.50;1.70;;;;;;;6.55;88.85;99294.91;5013330;28;20581;-79
2024/01/02 02:19:31;;;;;;;3.20;1.73;;;;;;;6.52;89.52;99285.47;5018689;28;20256;-80
2024/01/02 02:21:58;;;;;;;5.07;1.63;;;;;;;6.56;89.03;99278.47;5019364;28;20268;-79
2024/01/02 02:24:27;;;;;;;7.03;2.27;;;;;;;6.62;89.60;99273.16;5018588;28;20222;-79
2024/01/02 02:26:56;;;;;;;7.00;2.40;;;;;;;6.60;88.58;99269.75;5018199;28;20285;-79
2024/01/02 02:29:22;;;;;;;8.97;2.10;;;;;;;6.60;88.84;99258.50;5018841;28;20568;-79
2024/01/02 02:31:49;;;;;;;5.70;2.30;;;;;;;6.33;90.01;99245.28;5017824;28;20765;-79
2024/01/02 02:34:15;;;;;;;4.23;1.63;;;;;;;6.43;90.05;99213.09;5018603;28;20203;-79
2024/01/02 02:36:42;;;;;;;8.23;1.80;;;;;;;6.49;90.53;99209.50;5018577;28;20237;-79
2024/01/02 02:39:09;;;;;;;5.40;1.90;;;;;;;6.49;91.31;99187.03;5018543;28;20207;-79
2024/01/02 02:41:36;;;;;;;3.80;1.50;;;;;;;6.54;91.61;99177.41;5018771;28;20214;-79
2024/01/02 02:44:03;;;;;;;4.63;1.60;;;;;;;6.59;91.11;99159.16;5019518;28;20237;-80
2024/01/02 02:46:29;;;;;;;6.97;1.80;;;;;;;6.65;91.75;99152.97;5019185;28;20225;-79
2024/01/02 02:48:55;;;;;;;2.93;1.37;;;;;;;6.74;91.01;99147.56;5018691;28;20207;-79
2024/01/02 02:51:22;;;;;;;8.00;1.43;;;;;;;6.73;91.81;99133.72;5018710;28;20207;-79
2024/01/02 02:53:48;;;;;;;4.83;1.40;;;;;;;6.84;91.08;99127.41;5018502;28;20268;-79
2024/01/02 02:56:15;;;;;;;4.07;1.53;;;;;;;6.87;90.92;99124.78;5017485;28;20705;-79
2024/01/02 02:58:43;;;;;;;7.77;1.40;;;;;;;6.88;90.93;99116.97;5018312;28;20354;-79
2024/01/02 03:01:09;;;;;;;6.50;1.70;;;;;;;6.93;91.13;99107.28;5017938;28;20210;-79
2024/01/02 03:03:36;;;;;;;4.13;1.67;;;;;;;6.92;90.85;99104.75;5017414;28;20269;-79
2024/01/02 03:06:02;;;;;;;4.10;1.30;;;;;;;6.97;91.07;99095.09;5017835;28;20256;-79
2024/01/02 03:08:29;;;;;;;3.30;1.83;;;;;;;7.05;90.49;99102.69;5017140;28;20203;-79
2024/01/02 03:10:59;;;;;;;5.97;1.73;;;;;;;7.02;91.38;99095.00;5018212;28;20211;-79
2024/01/02 03:13:25;;;;;;;3.57;1.50;;;;;;;7.10;91.21;99091.31;5017864;28;20257;-78
2024/01/02 03:15:53;;;;;;;3.53;1.40;;;;;;;7.15;90.17;99093.78;5018184;28;20223;-79
2024/01/02 03:18:20;;;;;;;6.30;1.97;;;;;;;7.08;90.50;99093.09;5017303;28;20215;-79
2024/01/02 03:20:47;;;;;;;4.93;1.63;;;;;;;7.12;90.48;99081.72;5018403;28;20207;-79
2024/01/02 03:23:13;;;;;;;5.30;2.77;;;;;;;7.13;90.84;99083.41;5017537;28;20253;-80
2024/01/02 03:25:39;;;;;;;5.03;2.20;;;;;;;7.10;91.49;99073.13;5017797;28;20227;-79
2024/01/02 03:28:06;;;;;;;5.33;2.10;;;;;;;7.22;91.54;99058.97;5018161;28;20211;-79
2024/01/02 03:30:32;;;;;;;2.17;1.23;;;;;;;7.22;91.56;99051.19;5017850;28;20614;-79
2024/01/02 03:33:00;;;;;;;6.83;2.57;;;;;;;7.30;91.12;99057.03;5016994;28;20257;-79
2024/01/02 03:35:26;;;;;;;5.90;1.80;;;;;;;7.41;90.94;99045.47;5017261;28;20281;-79
2024/01/02 03:37:54;;;;;;;7.77;2.10;;;;;;;7.46;89.89;99047.06;5016793;28;20267;-79
2024/01/02 03:40:20;;;;;;;3.87;1.80;;;;;;;7.39;89.77;99060.25;5017216;28;20583;-79
2024/01/02 03:42:47;;;;;;;3.57;1.63;;;;;;;7.51;89.48;99059.91;5016875;28;20234;-80
2024/01/02 03:45:13;;;;;;;7.47;1.83;;;;;;;7.59;89.34;99062.28;5017403;28;20272;-79
2024/01/02 03:47:39;;;;;;;3.53;1.50;;;;;;;7.63;88.89;99059.56;5016173;28;20205;-79
2024/01/02 03:50:08;;;;;;;8.77;2.10;;;;;;;7.67;89.33;99057.69;5017704;28;20298;-79
2024/01/02 03:52:35;;;;;;;5.37;1.50;;;;;;;7.61;89.30;99056.16;5017740;28;20294;-79
2024/01/02 03:55:01;;;;;;;5.80;1.33;;;;;;;7.71;88.96;99051.53;5017171;28;20231;-79
2024/01/02 03:57:27;;;;;;;4.93;1.80;;;;;;;7.76;88.39;99054.84;5017658;28;20203;-79
2024/01/02 03:59:54;;;;;;;3.90;1.33;;;;;;;7.66;88.76;99045.63;5017856;28;20238;-79
2024/01/02 04:02:20;;;;;;;9.43;2.10;;;;;;;7.52;89.61;99022.66;5017846;28;20255;-79
2024/01/02 04:04:47;;;;;;;5.57;1.60;;;;;;;7.63;90.21;99005.03;5017446;28;20227;-79
2024/01/02 04:07:14;;;;;;;5.93;2.10;;;;;;;7.63;90.41;98996.38;5016898;28;20798;-79
2024/01/02 04:09:42;;;;;;;3.20;1.87;;;;;;;7.43;91.09;98963.22;5017924;28;20207;-80
2024/01/02 04:12:08;;;;;;;4.20;1.60;;;;;;;7.46;93.14;98930.22;5017594;28;20238;-79
2024/01/02 04:14:34;;;;;;;5.07;1.60;;;;;;;7.42;94.48;98897.47;5017340;28;20199;-79
2024/01/02 04:17:01;;;;;;;4.00;1.47;;;;;;;7.54;93.76;98870.28;5016607;28;20231;-79
2024/01/02 04:19:27;;;;;;;4.17;1.60;;;;;;;7.61;93.95;98850.16;5017767;28;20313;-79
2024/01/02 04:21:54;;;;;;;4.67;1.67;;;;;;;7.67;93.65;98843.03;5017652;28;20298;-79
2024/01/02 04:24:23;;;;;;;6.90;2.03;;;;;;;7.53;94.89;98830.50;5016758;28;20234;-79
2024/01/02 04:26:50;;;;;;;5.67;2.10;;;;;;;7.60;94.63;98817.31;5016867;28;20243;-80
2024/01/02 04:29:17;;;;;;;5.33;1.80;;;;;;;7.71;94.06;98809.97;5017600;28;20206;-79
2024/01/02 04:31:43;;;;;;;4.13;1.60;;;;;;;7.70;93.71;98803.09;5017286;28;20229;-79
2024/01/02 04:34:10;;;;;;;4.30;1.73;;;;;;;7.72;93.83;98801.31;5017524;28;20629;-79
2024/01/02 04:36:36;;;;;;;4.53;1.37;;;;;;;7.63;94.31;98791.22;5017761;28;20573;-80
2024/01/02 04:39:03;;;;;;;4.30;1.60;;;;;;;7.68;95.27;98784.97;5016826;28;20744;-80
2024/01/02 04:41:30;;;;;;;4.63;1.63;;;;;;;7.68;94.90;98768.56;5017188;28;20218;-79
2024/01/02 04:43:57;;;;;;;2.13;1.33;;;;;;;7.80;94.87;98759.50;5017453;28;20226;-80
2024/01/02 04:46:23;;;;;;;3.43;1.30;;;;;;;7.82;94.00;98766.31;5016685;28;20328;-80
2024/01/02 04:48:50;;;;;;;3.67;1.70;;;;;;;7.87;93.67;98764.44;5016936;28;20214;-80
2024/01/02 04:51:16;;;;;;;3.17;1.23;;;;;;;7.79;94.71;98753.47;5017759;28;20566;-80
2024/01/02 04:53:42;;;;;;;3.20;1.90;;;;;;;7.84;93.90;98746.34;5017044;28;20223;-79
2024/01/02 04:56:09;;;;;;;2.67;1.13;;;;;;;7.83;94.63;98744.66;5017375;28;20268;-80
2024/01/02 04:58:36;;;;;;;3.37;1.60;;;;;;;7.86;93.61;98751.47;5017914;28;20261;-80
2024/01/02 05:01:03;;;;;;;5.07;1.17;;;;;;;7.82;94.46;98748.13;5017295;28;20207;-80
2024/01/02 05:03:30;;;;;;;4.33;2.07;;;;;;;7.85;94.32;98737.66;5017036;28;20266;-80
2024/01/02 05:05:56;;;;;;;2.27;1.20;;;;;;;7.89;93.33;98733.22;5017255;28;20231;-79
2024/01/02 05:08:23;;;;;;;3.00;1.20;;;;;;;7.88;93.83;98726.31;5017703;28;20225;-79
2024/01/02 05:10:49;;;;;;;4.93;1.27;;;;;;;7.86;93.57;98723.75;5025455;28;20199;-78
2024/01/02 05:13:15;;;;;;;4.30;1.63;;;;;;;7.80;94.18;98717.94;5029501;28;20215;-78
2024/01/02 05:15:43;;;;;;;2.53;1.27;;;;;;;7.73;94.94;98699.09;5026556;28;20223;-78
2024/01/02 05:18:09;;;;;;;2.80;1.30;;;;;;;7.70;95.82;98686.25;5022672;28;20210;-77
2024/01/02 05:20:36;;;;;;;1.80;1.30;;;;;;;7.73;96.03;98663.63;5023885;28;20203;-77
2024/01/02 05:23:03;;;;;;;2.90;1.47;;;;;;;7.75;96.57;98663.56;5022811;28;20257;-77
2024/01/02 05:25:30;;;;;;;2.37;1.47;;;;;;;7.73;96.80;98661.03;5020532;28;20230;-79
2024/01/02 05:27:56;;;;;;;1.70;1.37;;;;;;;7.78;96.09;98640.06;5022744;28;20283;-79
2024/01/02 05:30:22;;;;;;;1.50;1.10;;;;;;;7.71;96.24;98644.66;5015427;28;20258;-79
2024/01/02 05:32:50;;;;;;;6.83;1.93;;;;;;;7.71;97.09;98631.66;5015102;28;20257;-79
2024/01/02 05:35:16;;;;;;;4.40;1.03;;;;;;;7.69;97.08;98625.69;5014770;28;20227;-79
2024/01/02 05:37:43;;;;;;;1.10;0.73;;;;;;;7.72;96.98;98617.75;5014881;28;20206;-79
2024/01/02 05:40:10;;;;;;;1.93;0.80;;;;;;;7.59;97.31;98605.28;5014846;28;20203;-79
2024/01/02 05:42:37;;;;;;;1.03;0.77;;;;;;;7.61;97.71;98599.16;5014683;28;20233;-79
2024/01/02 05:45:03;;;;;;;0.83;0.50;;;;;;;7.42;98.45;98592.91;5010411;28;20284;-78
2024/01/02 05:47:30;;;;;;;0.90;0.50;;;;;;;7.48;99.07;98561.53;5014061;28;20282;-79
2024/01/02 05:49:58;;;;;;;2.23;0.90;;;;;;;7.58;98.83;98555.09;5014337;28;20237;-79
2024/01/02 05:52:24;;;;;;;0.67;0.60;;;;;;;7.54;98.06;98548.34;5013585;28;20257;-79
2024/01/02 05:54:50;;;;;;;0.97;0.60;;;;;;;7.55;98.61;98543.09;5014701;28;20264;-79
2024/01/02 05:57:16;;;;;;;1.90;0.60;;;;;;;7.63;98.25;98548.00;5013702;28;20265;-79
2024/01/02 05:59:43;;;;;;;0.60;0.50;;;;;;;7.68;97.67;98556.44;5014164;28;20277;-79
2024/01/02 06:02:09;;;;;;;0.70;0.40;;;;;;;7.68;97.71;98556.44;5013465;28;20389;-79
2024/01/02 06:04:35;;;;;;;0.60;0.47;;;;;;;7.41;97.52;98562.66;5013936;28;20226;-79
2024/01/02 06:07:03;;;;;;;1.17;0.50;;;;;;;7.58;97.73;98549.06;5013638;28;20288;-79
2024/01/02 06:09:30;;;;;;;1.10;0.40;;;;;;;7.55;97.88;98548.28;5013708;28;20214;-79
2024/01/02 06:11:56;;;;;;;0.80;0.43;;;;;;;7.58;96.67;98543.88;5013598;28;20265;-79
2024/01/02 06:14:23;;;;;;;1.13;0.40;;;;;;;7.66;95.97;98552.22;5013701;28;20203;-79
2024/01/02 06:16:49;;;;;;;0.80;0.43;;;;;;;7.63;96.47;98553.19;5013570;28;20305;-80
2024/01/02 06:19:18;;;;;;;1.20;0.60;;;;;;;7.65;95.82;98553.97;5014029;28;20261;-79
2024/01/02 06:21:44;;;;;;;1.57;0.90;;;;;;;7.73;95.66;98548.47;5014164;28;20202;-80
2024/01/02 06:24:12;;;;;;;1.20;0.40;;;;;;;7.65;95.98;98561.78;5013335;28;20906;-79
2024/01/02 06:26:38;;;;;;;1.13;0.40;;;;;;;7.53;95.82;98565.66;5013700;28;20872;-80
2024/01/02 06:29:05;;;;;;;0.97;0.40;;;;;;;7.62;95.47;98553.25;5013983;28;20675;-80
2024/01/02 06:31:31;;;;;;;0.60;0.40;;;;;;;7.40;95.14;98556.63;5014174;28;20211;-79
2024/01/02 06:33:57;;;;;;;1.60;0.40;;;;;;;7.48;95.42;98551.16;5013528;28;20238;-79
2024/01/02 06:36:24;;;;;;;1.27;0.50;;;;;;;7.46;95.50;98548.63;5014268;28;20234;-79
2024/01/02 06:38:50;;;;;;;0.57;0.27;;;;;;;7.53;95.63;98541.44;5014351;28;20238;-79
2024/01/02 06:41:18;;;;;;;1.13;0.40;;;;;;;7.45;95.90;98523.56;5013740;28;20265;-79
2024/01/02 06:43:44;;;;;;;0.70;0.40;;;;;;;7.39;95.82;98515.16;5013768;28;20283;-80
2024/01/02 06:46:12;;;;;;;1.47;0.40;;;;;;;7.49;94.99;98517.38;5013522;28;20775;-79
2024/01/02 06:48:38;;;;;;;1.03;0.30;;;;;;;7.52;95.13;98525.03;5005727;28;20628;-80
2024/01/02 06:51:05;;;;;;;0.50;0.30;;;;;;;7.45;95.87;98520.13;5014150;28;20219;-80
2024/01/02 06:53:31;;;;;;;0.77;0.30;;;;;;;7.55;95.78;98511.94;5013595;28;20270;-80
2024/01/02 06:55:57;;;;;;;0.40;0.30;;;;;;;7.52;95.71;98525.03;5013626;28;20231;-79
2024/01/02 06:58:24;;;;;;;0.37;0.37;;;;;;;7.55;95.30;98527.53;5014581;28;20642;-79
2024/01/02 07:00:51;;;;;;;0.30;0.20;;;;;;;7.44;95.39;98526.22;5014207;28;20211;-79
2024/01/02 07:03:18;;;;;;;0.33;0.30;;;;;;;7.47;95.27;98524.38;5013549;28;20207;-79
2024/01/02 07:05:45;;;;;;;0.23;0.23;;;;;;;7.49;94.37;98524.28;5017182;28;20704;-79
2024/01/02 07:08:11;;;;;;;0.93;0.30;;;;;;;7.43;94.67;98522.75;5016697;28;20214;-79
2024/01/02 07:10:37;;;;;;;0.63;0.30;;;;;;;7.50;94.06;98532.03;5017386;28;20261;-79
2024/01/02 07:13:04;;;;;;;0.20;0.20;;;;;;;7.55;93.23;98526.66;5017511;28;20203;-79
2024/01/02 07:15:31;;;;;;;0.93;0.20;;;;;;;7.59;92.75;98527.38;5017556;28;20231;-80
2024/01/02 07:17:58;;;;;;;0.67;0.20;;;;;;;7.47;92.48;98539.94;5016977;28;20253;-80
2024/01/02 07:20:24;;;;;;;0.30;0.20;;;;;;;7.45;92.81;98533.09;5017566;28;20207;-79
2024/01/02 07:22:51;;;;;;;0.43;0.17;;;;;;;7.45;92.92;98540.88;5016984;28;20751;-80
2024/01/02 07:25:17;;;;;;;0.10;0.10;;;;;;;7.52;92.42;98547.53;5016773;28;20238;-79
2024/01/02 07:27:44;;;;;;;1.30;0.20;;;;;;;7.46;92.72;98545.19;5017052;28;20430;-79
2024/01/02 07:30:11;;;;;;;0.20;0.20;;;;;;;7.50;92.14;98537.22;5017151;28;20208;-79
2024/01/02 07:32:39;;;;;;;0.30;0.20;;;;;;;7.40;92.02;98545.41;5017373;28;20229;-79
2024/01/02 07:35:06;;;;;;;0.10;0.10;;;;;;;7.46;91.93;98540.00;5017062;28;20273;-79
2024/01/02 07:37:33;;;;;;;0.30;0.10;;;;;;;7.39;92.81;98522.94;5016917;28;20268;-79
2024/01/02 07:40:00;;;;;;;0.93;0.20;;;;;;;7.33;92.91;98524.88;5017728;28;20257;-80
2024/01/02 07:42:26;;;;;;;0.40;0.20;;;;;;;7.18;92.96;98507.25;5017108;28;20203;-80
2024/01/02 07:44:53;;;;;;;0.00;0.00;;;;;;;7.28;92.23;98519.00;5016998;28;20333;-80
2024/01/02 07:47:19;;;;;;;0.03;0.03;;;;;;;7.07;91.60;98530.97;5016516;28;20264;-79
2024/01/02 07:49:47;;;;;;;0.07;0.07;;;;;;;7.12;92.83;98512.69;5019872;28;20650;-79
2024/01/02 07:52:13;;;;;;;0.17;0.10;;;;;;;7.04;92.45;98480.97;5019699;28;20213;-80
2024/01/02 07:54:39;;;;;;;0.10;0.10;;;;;;;7.07;93.32;98471.31;5019105;28;20257;-80
2024/01/02 07:57:07;;;;;;;0.10;0.10;;;;;;;7.13;92.71;98465.06;5019324;28;20227;-80
2024/01/02 07:59:33;;;;;;;0.50;0.10;;;;;;;7.08;92.10;98461.81;5020234;28;20207;-79
2024/01/02 08:01:59;;;;;;;0.87;0.10;;;;;;;7.05;93.00;98456.72;5018244;28;20210;-80
2024/01/02 08:04:26;;;;;;;0.73;0.20;;;;;;;7.04;92.92;98455.88;5018786;28;20210;-79
2024/01/02 08:06:53;;;;;;;0.37;0.10;;;;;;;7.05;93.18;98462.75;5019092;28;20235;-79
2024/01/02 08:09:20;;;;;;;0.20;0.10;;;;;;;7.15;92.40;98466.72;5019601;28;20207;-79
2024/01/02 08:11:46;;;;;;;0.17;0.17;;;;;;;7.13;92.49;98457.28;5018629;28;20208;-80
2024/01/02 08:14:14;;;;;;;0.10;0.10;;;;;;;7.13;92.80;98429.56;5018911;28;20206;-79
2024/01/02 08:16:40;;;;;;;0.20;0.10;;;;;;;7.16;92.12;98436.41;5016547;28;20229;-79
2024/01/02 08:19:07;;;;;;;0.10;0.10;;;;;;;7.15;91.80;98417.41;5019133;28;20237;-80
2024/01/02 08:21:34;;;;;;;0.20;0.20;;;;;;;7.07;92.15;98419.44;5017989;28;20216;-78
2024/01/02 08:24:02;;;;;;;0.17;0.17;;;;;;;7.14;92.27;98415.72;5016578;28;20681;-79
2024/01/02 08:26:29;;;;;;;0.73;0.20;;;;;;;7.20;91.62;98425.03;5008927;28;20228;-79
2024/01/02 08:28:56;;;;;;;0.10;0.10;;;;;;;7.20;91.82;98416.41;5007104;28;20286;-79
2024/01/02 08:31:22;;;;;;;0.20;0.20;;;;;;;7.16;91.96;98413.06;5007301;28;20200;-80
2024/01/02 08:33:48;;;;;;;0.20;0.20;;;;;;;7.09;91.48;98411.59;5005707;28;20234;-80
2024/01/02 08:36:15;;;;;;;0.10;0.10;;;;;;;7.05;90.97;98416.03;5006937;28;20220;-79
2024/01/02 08:38:41;;;;;;;0.20;0.20;;;;;;;6.99;92.50;98405.91;5007074;28;20714;-79
2024/01/02 08:41:09;;;;;;;0.10;0.10;;;;;;;6.85;93.49;98388.25;5005560;28;20763;-79
2024/01/02 08:43:36;;;;;;;0.13;0.13;;;;;;;6.93;93.11;98364.63;5010586;28;20671;-79
2024/01/02 08:46:05;;;;;;;0.30;0.20;;;;;;;6.97;93.11;98355.84;5011401;28;20608;-78
2024/01/02 08:48:31;;;;;;;0.30;0.20;;;;;;;6.95;93.88;98339.47;5005307;28;20203;-79
2024/01/02 08:50:57;;;;;;;0.20;0.10;;;;;;;6.93;93.99;98344.72;5008504;28;20230;-79
2024/01/02 08:53:24;;;;;;;0.10;0.10;;;;;;;7.03;92.97;98342.63;5008960;28;20266;-80
2024/01/02 08:55:50;;;;;;;0.40;0.20;;;;;;;6.90;93.68;98350.03;5006818;28;20226;-80
2024/01/02 08:58:18;;;;;;;0.20;0.20;;;;;;;6.87;93.64;98332.00;5010323;28;20200;-79
2024/01/02 09:00:45;;;;;;;0.10;0.10;;;;;;;6.89;94.72;98314.63;5007076;28;20211;-79
2024/01/02 09:03:11;;;;;;;0.57;0.20;;;;;;;6.97;94.47;98309.16;5004463;28;20260;-79
2024/01/02 09:05:38;;;;;;;0.20;0.20;;;;;;;6.70;94.41;98311.03;5006348;28;20309;-79
2024/01/02 09:08:05;;;;;;;0.40;0.20;;;;;;;6.79;95.21;98283.94;5006238;28;20294;-78
2024/01/02 09:10:31;;;;;;;0.47;0.20;;;;;;;6.89;95.25;98288.69;5005473;28;20675;-80
2024/01/02 09:12:57;;;;;;;0.10;0.10;;;;;;;6.92;94.49;98293.78;5008734;28;20263;-79
2024/01/02 09:15:25;;;;;;;0.20;0.20;;;;;;;7.09;94.46;98284.47;5011783;28;20284;-78
2024/01/02 09:17:51;;;;;;;0.10;0.10;;;;;;;7.17;94.65;98287.59;5007460;28;20196;-79
2024/01/02 09:20:18;;;;;;;0.67;0.10;;;;;;;7.28;94.36;98285.44;5006478;28;20565;-79
2024/01/02 09:22:44;;;;;;;0.17;0.17;;;;;;;7.35;94.04;98284.28;5006417;28;20229;-79
2024/01/02 09:25:12;;;;;;;0.10;0.10;;;;;;;7.36;94.22;98295.50;5005610;28;20219;-80
2024/01/02 09:27:39;;;;;;;0.10;0.10;;;;;;;7.39;94.46;98289.34;5005839;28;20297;-79
2024/01/02 09:30:06;;;;;;;0.30;0.20;;;;;;;7.40;93.53;98286.69;5007199;28;20208;-80
2024/01/02 09:32:34;;;;;;;0.10;0.10;;;;;;;7.48;93.16;98296.78;5007095;28;20195;-79
2024/01/02 09:35:01;;;;;;;0.67;0.20;;;;;;;7.54;92.84;98306.91;5006487;28;20254;-79
2024/01/02 09:37:27;;;;;;;0.10;0.10;;;;;;;7.53;92.92;98311.25;5004630;28;20705;-80
2024/01/02 09:39:54;;;;;;;0.20;0.20;;;;;;;7.60;93.28;98311.00;5007199;28;20209;-80
2024/01/02 09:42:35;;;;;;;0.10;0.10;;;;;;;7.60;93.49;98298.00;5007591;28;20223;-80
2024/01/02 09:45:11;;;;;;;0.60;0.20;;;;;;;7.68;93.65;98295.94;5012514;28;20230;-79
2024/01/02 09:47:55;;;;;;;0.13;0.10;;;;;;;7.75;94.18;98287.00;5006508;28;20206;-80
2024/01/02 09:50:28;;;;;;;0.10;0.10;;;;;;;7.76;93.68;98281.72;5006884;28;20210;-79
2024/01/02 09:53:16;;;;;;;0.17;0.10;;;;;;;7.81;93.49;98278.94;5006224;28;20277;-80
2024/01/02 09:55:52;;;;;;;1.03;0.10;;;;;;;7.85;93.35;98280.50;5008206;28;20284;-80
2024/01/02 09:58:25;;;;;;;0.10;0.10;;;;;;;7.86;93.71;98284.78;5008625;28;20207;-80
2024/01/02 10:01:03;;;;;;;0.20;0.20;;;;;;;7.84;93.90;98273.59;5010361;28;20614;-80
2024/01/02 10:03:49;;;;;;;0.10;0.10;;;;;;;7.96;93.52;98270.47;5008688;28;20666;-80
2024/01/02 10:06:32;;;;;;;0.20;0.20;;;;;;;7.99;93.51;98271.25;5008014;28;20230;-80
2024/01/02 10:09:19;;;;;;;2.17;0.40;;;;;;;7.82;95.73;98239.06;5008032;28;20206;-80
2024/01/02 10:11:52;;;;;;;0.20;0.20;;;;;;;7.95;95.67;98219.44;5007272;28;20206;-79
2024/01/02 10:14:27;;;;;;;1.10;1.00;;;;;;;8.04;96.37;98207.78;5013685;28;20203;-80
2024/01/02 10:17:06;;;;;;;1.67;1.00;;;;;;;8.08;95.54;98206.72;5011271;28;20250;-80
2024/01/02 10:19:46;;;;;;;0.20;0.20;;;;;;;8.18;96.27;98198.53;5007276;28;20206;-80
2024/01/02 10:22:22;;;;;;;0.10;0.10;;;;;;;8.23;95.78;98215.59;5008732;28;20195;-80
2024/01/02 10:24:53;;;;;;;0.20;0.20;;;;;;;8.16;96.98;98199.44;5005171;28;20843;-79
2024/01/02 10:27:27;;;;;;;1.17;0.20;;;;;;;8.15;97.74;98165.75;5006000;28;20195;-80
2024/01/02 10:30:03;;;;;;;0.30;0.30;;;;;;;8.28;97.90;98166.00;5007455;28;20210;-79
2024/01/02 10:32:41;;;;;;;1.33;0.80;;;;;;;8.38;98.05;98162.06;5005088;28;20411;-79
2024/01/02 10:35:12;;;;;;;6.67;5.97;;;;;;;8.42;97.63;98152.41;5006176;28;20219;-80
2024/01/02 10:37:43;;;;;;;1.10;1.00;;;;;;;8.45;98.55;98147.91;5013039;28;20207;-80
2024/01/02 10:40:19;;;;;;;1.50;1.23;;;;;;;8.51;98.35;98146.78;5026565;28;20689;-80
2024/01/02 10:42:57;;;;;;;1.60;0.90;;;;;;;8.47;99.15;98135.69;5028293;28;20237;-80
2024/01/02 10:45:28;;;;;;;0.87;0.70;;;;;;;8.59;99.32;98113.44;5024609;28;20229;-79
2024/01/02 10:48:14;;;;;;;1.53;1.20;;;;;;;8.65;99.40;98126.16;5043197;28;20237;-79
2024/01/02 10:50:53;;;;;;;0.40;0.40;;;;;;;8.67;100.00;98095.72;5050212;28;20958;-78
2024/01/02 10:53:32;;;;;;;0.30;0.30;;;;;;;8.71;100.00;98084.22;5037357;28;20206;-79
2024/01/02 10:56:06;;;;;;;0.10;0.10;;;;;;;8.75;100.00;98088.38;5031725;28;20276;-79
2024/01/02 10:58:41;;;;;;;0.23;0.20;;;;;;;8.80;100.00;98071.69;5028050;28;20218;-78
2024/01/02 11:01:12;;;;;;;2.10;1.60;;;;;;;8.99;100.00;98074.22;5021630;28;20423;-78
2024/01/02 11:03:48;;;;;;;1.90;1.53;;;;;;;8.93;100.00;98080.56;5022207;28;20237;-78
2024/01/02 11:06:21;;;;;;;0.97;0.83;;;;;;;9.02;100.00;98064.50;5018682;28;20238;-79
2024/01/02 11:08:57;;;;;;;0.63;0.30;;;;;;;9.03;100.00;98057.53;5017975;28;20228;-79
2024/01/02 11:11:24;;;;;;;1.07;0.20;;;;;;;9.08;100.00;98058.16;5021285;28;20681;-79
2024/01/02 11:13:52;;;;;;;1.10;0.80;;;;;;;9.11;100.00;98052.78;5025759;28;20325;-81
2024/01/02 11:16:21;;;;;;;0.20;0.20;;;;;;;9.15;100.00;98056.91;5024927;28;20261;-80
2024/01/02 11:18:50;;;;;;;0.20;0.20;;;;;;;9.14;100.00;98043.03;5025987;28;20275;-80
2024/01/02 11:21:29;;;;;;;2.63;2.17;;;;;;;9.14;100.00;98048.25;5029996;28;20194;-80
2024/01/02 11:23:57;;;;;;;1.60;1.20;;;;;;;9.18;100.00;98043.75;5028970;28;20203;-77
2024/01/02 11:26:25;;;;;;;1.63;1.10;;;;;;;9.22;100.00;98050.47;5037522;28;20238;-79
2024/01/02 11:28:52;;;;;;;0.60;0.40;;;;;;;9.19;100.00;98048.00;5037955;28;20276;-78
2024/01/02 11:31:21;;;;;;;0.20;0.20;;;;;;;9.22;100.00;98044.44;5037389;28;20206;-78
2024/01/02 11:34:03;;;;;;;0.30;0.30;;;;;;;9.22;100.00;98023.59;5036679;28;20672;-78
2024/01/02 11:36:43;;;;;;;0.43;0.40;;;;;;;9.18;100.00;98022.91;5037025;28;20226;-78
2024/01/02 11:39:12;;;;;;;0.20;0.20;;;;;;;9.12;100.00;97989.41;5037245;28;20210;-78
2024/01/02 11:41:51;;;;;;;0.30;0.30;;;;;;;9.30;100.00;98003.22;5036557;28;20202;-78
2024/01/02 11:44:31;;;;;;;1.53;1.30;;;;;;;9.40;100.00;98008.78;5023472;28;20254;-78